createdAt,value
2016-11-16T12:18:01.778Z,80
2016-11-16T12:19:02.075Z,85
2016-11-16T12:20:01.770Z,95
2016-11-16T12:21:01.783Z,100
2016-11-16T12:22:01.745Z,100
2016-11-16T12:23:01.734Z,100
2016-11-16T12:24:01.726Z,110
2016-11-16T12:25:01.730Z,120
2016-11-16T12:26:01.715Z,135
2016-11-16T12:27:01.711Z,150
2016-11-16T12:28:01.708Z,160
2016-11-16T12:29:01.719Z,160
2016-11-16T12:30:01.715Z,130
2016-11-16T12:31:01.682Z,120
2016-11-16T12:32:01.679Z,115
2016-11-16T12:33:01.672Z,105
2016-11-16T12:34:01.661Z,95
2016-11-16T12:35:01.659Z,95
2016-11-16T12:36:01.850Z,95
2016-11-16T12:37:01.639Z,95
2016-11-16T12:38:01.943Z,95
2016-11-16T12:39:01.633Z,105
2016-11-16T12:40:01.621Z,110
2016-11-16T12:41:01.613Z,120
2016-11-16T12:42:01.609Z,125
2016-11-16T12:43:01.595Z,125
2016-11-16T12:44:01.594Z,135
2016-11-16T12:45:01.584Z,145
2016-11-16T12:46:01.584Z,145
2016-11-16T12:47:01.574Z,130
2016-11-16T12:48:01.560Z,125
2016-11-16T12:49:01.552Z,135
2016-11-16T12:50:01.550Z,145
2016-11-16T12:51:01.539Z,145
2016-11-16T12:52:01.834Z,140
2016-11-16T12:53:01.522Z,120
2016-11-16T12:54:01.526Z,115
2016-11-16T12:55:01.512Z,105
2016-11-16T12:56:01.510Z,100
2016-11-16T12:57:01.519Z,105
2016-11-16T12:58:01.495Z,95
2016-11-16T12:59:01.482Z,85
2016-11-16T13:00:01.486Z,75
2016-11-16T13:01:01.783Z,65
2016-11-16T13:02:01.774Z,65
2016-11-16T13:03:01.460Z,60
2016-11-16T13:04:01.445Z,55
2016-11-16T13:05:01.440Z,55
2016-11-16T13:06:01.744Z,55
2016-11-16T13:07:01.429Z,65
2016-11-16T13:08:01.423Z,70
2016-11-16T13:09:01.412Z,65
2016-11-16T13:10:01.402Z,60
2016-11-16T13:11:01.397Z,55
2016-11-16T13:12:01.401Z,70
2016-11-16T13:13:01.386Z,70
2016-11-16T13:14:01.384Z,65
2016-11-16T13:15:01.370Z,55
2016-11-16T13:16:01.362Z,60
2016-11-16T13:17:01.357Z,60
2016-11-16T13:18:01.660Z,55
2016-11-16T13:19:01.341Z,50
2016-11-16T13:20:01.326Z,45
2016-11-16T13:21:01.628Z,45
2016-11-16T13:22:01.325Z,45
2016-11-16T13:23:01.648Z,45
2016-11-16T13:24:01.302Z,50
2016-11-16T13:25:01.320Z,40
2016-11-16T13:26:01.592Z,40
2016-11-16T13:27:01.285Z,35
2016-11-16T13:28:01.274Z,40
2016-11-16T13:29:01.266Z,40
2016-11-16T13:30:01.579Z,40
2016-11-16T13:31:01.263Z,40
2016-11-16T13:32:01.244Z,35
2016-11-16T13:33:01.238Z,35
2016-11-16T13:34:01.239Z,30
2016-11-16T13:35:01.227Z,30
2016-11-16T13:36:01.212Z,30
2016-11-16T13:37:01.209Z,30
2016-11-16T13:38:01.195Z,30
2016-11-16T13:39:01.191Z,30
2016-11-16T13:40:01.180Z,25
2016-11-16T13:41:01.180Z,25
2016-11-16T13:42:01.168Z,25
2016-11-16T13:43:01.460Z,25
2016-11-16T13:44:01.152Z,25
2016-11-16T13:45:01.139Z,20
2016-11-16T13:46:01.137Z,20
2016-11-16T13:47:01.124Z,25
2016-11-16T13:48:01.124Z,25
2016-11-16T13:49:01.114Z,25
2016-11-16T13:50:01.100Z,25
2016-11-16T13:51:01.099Z,25
2016-11-16T13:52:01.100Z,25
2016-11-16T13:53:01.094Z,25
2016-11-16T13:54:01.068Z,25
2016-11-16T13:55:01.065Z,30
2016-11-16T13:56:01.060Z,30
2016-11-16T13:57:01.075Z,25
2016-11-16T13:58:01.039Z,25
2016-11-16T13:59:01.036Z,30
2016-11-16T14:00:01.051Z,30
2016-11-16T14:01:01.325Z,35
2016-11-16T14:02:01.017Z,40
2016-11-16T14:03:01.001Z,35
2016-11-16T14:04:00.999Z,30
2016-11-16T14:05:00.986Z,30
2016-11-16T14:06:00.971Z,30
2016-11-16T14:07:01.274Z,30
2016-11-16T14:08:00.966Z,25
2016-11-16T14:09:00.950Z,25
2016-11-16T14:10:00.940Z,20
2016-11-16T14:11:00.934Z,15
2016-11-16T14:12:00.918Z,10
2016-11-16T14:13:00.911Z,10
2016-11-16T14:14:00.918Z,10
2016-11-16T14:15:01.101Z,5
2016-11-16T14:16:00.893Z,5
2016-11-16T14:17:00.882Z,5
2016-11-16T14:18:01.268Z,5
2016-11-16T14:19:00.874Z,5
2016-11-16T14:20:00.861Z,5
2016-11-16T14:21:00.859Z,10
2016-11-16T14:22:00.847Z,10
2016-11-16T14:23:00.834Z,10
2016-11-16T14:24:00.835Z,10
2016-11-16T14:25:00.810Z,10
2016-11-16T14:26:00.816Z,10
2016-11-16T14:27:00.822Z,10
2016-11-16T14:28:00.800Z,10
2016-11-16T14:29:00.782Z,10
2016-11-16T14:30:00.775Z,15
2016-11-16T14:31:00.764Z,15
2016-11-16T14:32:00.759Z,15
2016-11-16T14:33:00.755Z,15
2016-11-16T14:34:00.743Z,15
2016-11-16T14:35:00.730Z,15
2016-11-16T14:36:00.732Z,15
2016-11-16T14:37:00.715Z,10
2016-11-16T14:38:00.710Z,10
2016-11-16T14:39:00.704Z,10
2016-11-16T14:40:00.692Z,10
2016-11-16T14:41:00.684Z,10
2016-11-16T14:42:00.990Z,10
2016-11-16T14:43:00.668Z,10
2016-11-16T14:44:00.655Z,15
2016-11-16T14:45:00.990Z,10
2016-11-16T14:46:00.644Z,15
2016-11-16T14:47:00.640Z,15
2016-11-16T14:48:00.926Z,10
2016-11-16T14:49:00.921Z,10
2016-11-16T14:50:00.607Z,10
2016-11-16T14:51:00.601Z,10
2016-11-16T14:52:00.898Z,10
2016-11-16T14:53:00.582Z,5
2016-11-16T14:54:00.582Z,5
2016-11-16T14:55:00.566Z,5
2016-11-16T14:56:00.562Z,5
2016-11-16T14:57:00.550Z,5
2016-11-16T14:58:00.546Z,5
2016-11-16T14:59:00.835Z,5
2016-11-16T15:00:00.530Z,5
2016-11-16T15:01:00.546Z,0
2016-11-16T15:02:00.502Z,0
2016-11-16T15:03:00.501Z,0
2016-11-16T15:04:00.492Z,0
2016-11-16T15:05:00.511Z,0
2016-11-16T15:06:00.474Z,0
2016-11-16T15:07:00.469Z,0
2016-11-16T15:08:00.767Z,0
2016-11-16T15:09:00.452Z,0
2016-11-16T15:10:00.745Z,0
2016-11-16T15:11:00.437Z,0
2016-11-16T15:12:00.431Z,0
2016-11-16T15:13:00.427Z,0
2016-11-16T15:14:00.423Z,0
2016-11-16T15:15:00.398Z,0
2016-11-16T15:16:00.698Z,0
2016-11-16T15:17:00.381Z,0
2016-11-16T15:18:00.380Z,0
2016-11-16T15:19:00.371Z,0
2016-11-16T15:20:00.361Z,0
2016-11-16T15:21:00.356Z,0
2016-11-16T15:22:00.337Z,0
2016-11-16T15:23:00.332Z,0
2016-11-16T15:24:00.338Z,0
2016-11-16T15:25:00.323Z,0
2016-11-16T15:26:00.305Z,0
2016-11-16T15:27:00.297Z,0
2016-11-16T15:28:00.323Z,0
2016-11-16T15:29:00.284Z,0
2016-11-16T15:30:00.273Z,0
2016-11-16T15:31:00.271Z,0
2016-11-16T15:32:00.261Z,0
2016-11-16T15:33:00.243Z,0
2016-11-16T15:34:00.242Z,0
2016-11-16T15:35:00.264Z,0
2016-11-16T15:36:00.223Z,0
2016-11-16T15:37:00.214Z,0
2016-11-16T15:38:00.210Z,0
2016-11-16T15:39:00.193Z,0
2016-11-16T15:40:00.194Z,0
2016-11-16T15:41:00.178Z,0
2016-11-16T15:42:00.171Z,0
2016-11-16T15:43:00.471Z,0
2016-11-16T15:44:00.153Z,0
2016-11-16T15:45:00.144Z,0
2016-11-16T15:46:00.171Z,0
2016-11-16T15:47:00.513Z,0
2016-11-16T15:48:00.122Z,0
2016-11-16T15:49:00.112Z,0
2016-11-16T15:50:00.107Z,0
2016-11-16T15:51:00.099Z,0
2016-11-16T15:52:00.089Z,0
2016-11-16T15:53:00.077Z,0
2016-11-16T15:54:00.070Z,0
2016-11-16T15:55:00.060Z,0
2016-11-16T15:56:00.056Z,0
2016-11-16T15:57:00.051Z,0
2016-11-16T15:58:00.037Z,0
2016-11-16T15:59:00.027Z,0
2016-11-16T16:00:00.016Z,0
2016-11-16T16:01:00.321Z,0
2016-11-16T16:02:00.001Z,0
2016-11-16T16:03:00.029Z,0
2016-11-16T16:03:59.983Z,0
2016-11-16T16:04:59.978Z,0
2016-11-16T16:05:59.967Z,0
2016-11-16T16:06:59.966Z,0
2016-11-16T16:07:59.952Z,0
2016-11-16T16:08:59.943Z,0
2016-11-16T16:09:59.937Z,0
2016-11-16T16:10:59.922Z,0
2016-11-16T16:11:59.921Z,0
2016-11-16T16:12:59.919Z,0
2016-11-16T16:13:59.902Z,0
2016-11-16T16:14:59.890Z,0
2016-11-16T16:15:59.879Z,0
2016-11-16T16:16:59.885Z,0
2016-11-16T16:17:59.871Z,0
2016-11-16T16:18:59.857Z,0
2016-11-16T16:19:59.851Z,0
2016-11-16T16:20:59.850Z,0
2016-11-16T16:21:59.833Z,0
2016-11-16T16:23:00.131Z,0
2016-11-16T16:24:00.429Z,0
2016-11-16T16:24:59.810Z,0
2016-11-16T16:25:59.805Z,0
2016-11-16T16:26:59.789Z,0
2016-11-16T16:27:59.787Z,0
2016-11-16T16:28:59.776Z,0
2016-11-16T16:30:00.076Z,0
2016-11-16T16:30:59.758Z,0
2016-11-16T16:31:59.749Z,0
2016-11-16T16:32:59.746Z,0
2016-11-16T16:33:59.734Z,0
2016-11-16T16:34:59.725Z,0
2016-11-16T16:35:59.711Z,0
2016-11-16T16:36:59.710Z,0
2016-11-16T16:37:59.698Z,0
2016-11-16T16:38:59.722Z,0
2016-11-16T16:39:59.684Z,0
2016-11-16T16:40:59.671Z,0
2016-11-16T16:41:59.660Z,0
2016-11-16T16:42:59.688Z,0
2016-11-16T16:43:59.647Z,0
2016-11-16T16:44:59.639Z,0
2016-11-16T16:45:59.633Z,0
2016-11-16T16:46:59.630Z,0
2016-11-16T16:47:59.614Z,0
2016-11-16T16:48:59.615Z,0
2016-11-16T16:49:59.604Z,0
2016-11-16T16:50:59.594Z,0
2016-11-16T16:51:59.578Z,0
2016-11-16T16:52:59.578Z,0
2016-11-16T16:53:59.571Z,0
2016-11-16T16:54:59.876Z,0
2016-11-16T16:55:59.555Z,0
2016-11-16T16:56:59.541Z,0
2016-11-16T16:57:59.546Z,0
2016-11-16T16:58:59.526Z,0
2016-11-16T16:59:59.506Z,0
2016-11-16T17:00:59.506Z,0
2016-11-16T17:01:59.508Z,0
2016-11-16T17:02:59.797Z,0
2016-11-16T17:03:59.488Z,0
2016-11-16T17:04:59.471Z,0
2016-11-16T17:05:59.467Z,0
2016-11-16T17:06:59.483Z,0
2016-11-16T17:07:59.441Z,0
2016-11-16T17:08:59.438Z,0
2016-11-16T17:09:59.436Z,0
2016-11-16T17:10:59.428Z,0
2016-11-16T17:11:59.415Z,0
2016-11-16T17:12:59.413Z,0
2016-11-16T17:13:59.400Z,0
2016-11-16T17:14:59.390Z,0
2016-11-16T17:15:59.387Z,0
2016-11-16T17:16:59.389Z,0
2016-11-16T17:17:59.373Z,0
2016-11-16T17:18:59.371Z,0
2016-11-16T17:19:59.354Z,0
2016-11-16T17:20:59.344Z,0
2016-11-16T17:21:59.343Z,0
2016-11-16T17:22:59.634Z,0
2016-11-16T17:23:59.320Z,0
2016-11-16T17:24:59.315Z,0
2016-11-16T17:25:59.306Z,0
2016-11-16T17:26:59.302Z,0
2016-11-16T17:27:59.290Z,0
2016-11-16T17:28:59.288Z,0
2016-11-16T17:29:59.273Z,0
2016-11-16T17:30:59.267Z,0
2016-11-16T17:31:59.252Z,0
2016-11-16T17:32:59.249Z,0
2016-11-16T17:33:59.248Z,0
2016-11-16T17:34:59.231Z,0
2016-11-16T17:35:59.234Z,0
2016-11-16T17:36:59.218Z,0
2016-11-16T17:37:59.216Z,0
2016-11-16T17:38:59.204Z,0
2016-11-16T17:39:59.195Z,0
2016-11-16T17:40:59.216Z,0
2016-11-16T17:41:59.177Z,0
2016-11-16T17:42:59.174Z,0
2016-11-16T17:43:59.160Z,0
2016-11-16T17:44:59.458Z,0
2016-11-16T17:45:59.144Z,0
2016-11-16T17:46:59.131Z,0
2016-11-16T17:47:59.440Z,0
2016-11-16T17:48:59.122Z,0
2016-11-16T17:49:59.115Z,0
2016-11-16T17:50:59.415Z,0
2016-11-16T17:51:59.091Z,0
2016-11-16T17:52:59.092Z,0
2016-11-16T17:53:59.083Z,0
2016-11-16T17:54:59.073Z,0
2016-11-16T17:55:59.069Z,0
2016-11-16T17:56:59.053Z,0
2016-11-16T17:57:59.049Z,0
2016-11-16T17:58:59.046Z,0
2016-11-16T17:59:59.032Z,0
2016-11-16T18:00:59.376Z,0
2016-11-16T18:01:59.009Z,0
2016-11-16T18:02:59.009Z,0
2016-11-16T18:03:58.999Z,0
2016-11-16T18:04:58.996Z,0
2016-11-16T18:05:59.001Z,0
2016-11-16T18:06:58.971Z,0
2016-11-16T18:07:58.967Z,0
2016-11-16T18:08:58.956Z,0
2016-11-16T18:09:58.960Z,0
2016-11-16T18:10:58.941Z,0
2016-11-16T18:11:58.946Z,0
2016-11-16T18:12:58.927Z,0
2016-11-16T18:13:58.910Z,0
2016-11-16T18:14:58.912Z,0
2016-11-16T18:15:58.899Z,0
2016-11-16T18:16:58.889Z,0
2016-11-16T18:17:59.190Z,0
2016-11-16T18:18:58.877Z,0
2016-11-16T18:19:58.861Z,0
2016-11-16T18:20:58.865Z,0
2016-11-16T18:21:58.853Z,0
2016-11-16T18:22:58.841Z,0
2016-11-16T18:23:58.837Z,0
2016-11-16T18:24:59.242Z,0
2016-11-16T18:25:58.823Z,0
2016-11-16T18:26:58.845Z,0
2016-11-16T18:27:58.803Z,0
2016-11-16T18:28:58.795Z,0
2016-11-16T18:29:58.787Z,0
2016-11-16T18:30:58.793Z,0
2016-11-16T18:31:58.778Z,0
2016-11-16T18:32:58.772Z,0
2016-11-16T18:33:58.754Z,0
2016-11-16T18:34:58.745Z,0
2016-11-16T18:35:58.737Z,0
2016-11-16T18:36:58.725Z,0
2016-11-16T18:37:58.723Z,0
2016-11-16T18:38:58.717Z,0
2016-11-16T18:39:58.704Z,0
2016-11-16T18:40:58.699Z,0
2016-11-16T18:41:58.691Z,0
2016-11-16T18:42:58.682Z,0
2016-11-16T18:43:58.682Z,0
2016-11-16T18:44:58.663Z,0
2016-11-16T18:45:58.971Z,0
2016-11-16T18:46:58.659Z,0
2016-11-16T18:47:58.644Z,0
2016-11-16T18:48:58.633Z,0
2016-11-16T18:49:58.628Z,0
2016-11-16T18:50:58.621Z,0
2016-11-16T18:51:58.614Z,0
2016-11-16T18:52:58.614Z,0
2016-11-16T18:53:58.592Z,0
2016-11-16T18:54:58.597Z,0
2016-11-16T18:55:58.582Z,0
2016-11-16T18:56:58.566Z,0
2016-11-16T18:57:58.564Z,0
2016-11-16T18:58:58.550Z,0
2016-11-16T18:59:58.546Z,0
2016-11-16T19:00:58.538Z,0
2016-11-16T19:01:58.527Z,0
2016-11-16T19:02:58.522Z,0
2016-11-16T19:03:58.513Z,0
2016-11-16T19:04:58.505Z,0
2016-11-16T19:05:58.503Z,0
2016-11-16T19:06:58.499Z,0
2016-11-16T19:07:58.791Z,0
2016-11-16T19:08:58.473Z,0
2016-11-16T19:09:58.470Z,0
2016-11-16T19:10:58.458Z,0
2016-11-16T19:11:58.447Z,0
2016-11-16T19:12:58.473Z,0
2016-11-16T19:13:58.428Z,0
2016-11-16T19:14:58.456Z,0
2016-11-16T19:15:58.409Z,0
2016-11-16T19:16:58.409Z,0
2016-11-16T19:17:58.401Z,0
2016-11-16T19:18:58.392Z,0
2016-11-16T19:19:58.688Z,0
2016-11-16T19:20:58.374Z,0
2016-11-16T19:21:58.365Z,0
2016-11-16T19:22:58.354Z,0
2016-11-16T19:23:58.357Z,0
2016-11-16T19:24:58.346Z,0
2016-11-16T19:25:58.331Z,0
2016-11-16T19:26:58.323Z,0
2016-11-16T19:27:58.322Z,0
2016-11-16T19:28:58.309Z,0
2016-11-16T19:29:58.302Z,0
2016-11-16T19:30:58.290Z,0
2016-11-16T19:31:58.285Z,0
2016-11-16T19:32:58.280Z,0
2016-11-16T19:33:58.574Z,0
2016-11-16T19:34:58.258Z,0
2016-11-16T19:35:58.259Z,0
2016-11-16T19:36:58.239Z,0
2016-11-16T19:37:58.232Z,0
2016-11-16T19:38:58.218Z,0
2016-11-16T19:39:58.215Z,0
2016-11-16T19:40:58.249Z,0
2016-11-16T19:41:58.206Z,0
2016-11-16T19:42:58.191Z,0
2016-11-16T19:43:58.484Z,0
2016-11-16T19:44:58.176Z,0
2016-11-16T19:45:58.176Z,0
2016-11-16T19:46:58.157Z,0
2016-11-16T19:47:58.145Z,0
2016-11-16T19:48:58.147Z,0
2016-11-16T19:49:58.134Z,0
2016-11-16T19:50:58.443Z,0
2016-11-16T19:51:58.116Z,0
2016-11-16T19:52:58.113Z,0
2016-11-16T19:53:58.099Z,0
2016-11-16T19:54:58.122Z,0
2016-11-16T19:55:58.093Z,0
2016-11-16T19:56:58.084Z,0
2016-11-16T19:57:58.070Z,0
2016-11-16T19:58:58.070Z,0
2016-11-16T19:59:58.074Z,0
2016-11-16T20:00:58.077Z,0
2016-11-16T20:01:58.028Z,0
2016-11-16T20:02:58.034Z,0
2016-11-16T20:03:58.009Z,0
2016-11-16T20:04:58.025Z,0
2016-11-16T20:05:58.002Z,0
2016-11-16T20:06:57.988Z,0
2016-11-16T20:07:57.999Z,0
2016-11-16T20:08:57.979Z,0
2016-11-16T20:09:58.272Z,0
2016-11-16T20:10:57.961Z,0
2016-11-16T20:11:57.953Z,0
2016-11-16T20:12:57.951Z,0
2016-11-16T20:13:57.934Z,0
2016-11-16T20:14:57.923Z,0
2016-11-16T20:15:57.925Z,0
2016-11-16T20:16:57.920Z,0
2016-11-16T20:17:57.934Z,0
2016-11-16T20:18:57.894Z,0
2016-11-16T20:19:57.888Z,0
2016-11-16T20:20:57.911Z,0
2016-11-16T20:21:57.878Z,0
2016-11-16T20:22:57.867Z,0
2016-11-16T20:23:58.188Z,0
2016-11-16T20:24:57.843Z,0
2016-11-16T20:25:57.835Z,0
2016-11-16T20:26:57.829Z,0
2016-11-16T20:27:57.818Z,0
2016-11-16T20:28:58.119Z,0
2016-11-16T20:29:57.808Z,0
2016-11-16T20:30:57.790Z,0
2016-11-16T20:31:57.796Z,0
2016-11-16T20:32:57.780Z,0
2016-11-16T20:33:57.776Z,0
2016-11-16T20:34:57.762Z,0
2016-11-16T20:35:57.756Z,0
2016-11-16T20:36:57.747Z,0
2016-11-16T20:37:57.743Z,0
2016-11-16T20:38:57.730Z,0
2016-11-16T20:39:57.722Z,0
2016-11-16T20:40:57.718Z,0
2016-11-16T20:41:57.735Z,0
2016-11-16T20:42:57.698Z,0
2016-11-16T20:43:57.688Z,0
2016-11-16T20:44:57.716Z,0
2016-11-16T20:45:57.683Z,0
2016-11-16T20:46:57.697Z,0
2016-11-16T20:47:58.279Z,0
2016-11-16T20:48:57.656Z,0
2016-11-16T20:49:57.641Z,0
2016-11-16T20:50:57.636Z,0
2016-11-16T20:51:57.632Z,0
2016-11-16T20:52:57.625Z,0
2016-11-16T20:53:57.617Z,0
2016-11-16T20:54:57.613Z,0
2016-11-16T20:55:57.596Z,0
2016-11-16T20:56:57.587Z,0
2016-11-16T20:57:57.881Z,0
2016-11-16T20:58:57.569Z,0
2016-11-16T20:59:57.562Z,0
2016-11-16T21:00:57.560Z,0
2016-11-16T21:01:57.550Z,0
2016-11-16T21:02:57.572Z,0
2016-11-16T21:03:57.530Z,0
2016-11-16T21:04:57.821Z,0
2016-11-16T21:05:57.516Z,0
2016-11-16T21:06:57.514Z,0
2016-11-16T21:07:57.818Z,0
2016-11-16T21:08:57.497Z,0
2016-11-16T21:09:57.483Z,0
2016-11-16T21:10:57.512Z,0
2016-11-16T21:11:57.467Z,0
2016-11-16T21:12:57.459Z,0
2016-11-16T21:13:57.451Z,0
2016-11-16T21:14:57.449Z,0
2016-11-16T21:15:57.436Z,0
2016-11-16T21:16:57.428Z,0
2016-11-16T21:17:57.718Z,0
2016-11-16T21:18:57.410Z,0
2016-11-16T21:19:57.429Z,0
2016-11-16T21:20:57.401Z,0
2016-11-16T21:21:57.695Z,0
2016-11-16T21:22:57.382Z,0
2016-11-16T21:23:57.369Z,0
2016-11-16T21:24:57.360Z,0
2016-11-16T21:25:57.350Z,0
2016-11-16T21:26:57.348Z,0
2016-11-16T21:27:57.332Z,0
2016-11-16T21:28:57.327Z,0
2016-11-16T21:29:57.314Z,0
2016-11-16T21:30:57.662Z,0
2016-11-16T21:31:57.308Z,0
2016-11-16T21:32:57.294Z,0
2016-11-16T21:33:57.287Z,0
2016-11-16T21:34:57.279Z,0
2016-11-16T21:35:57.577Z,0
2016-11-16T21:36:57.260Z,0
2016-11-16T21:37:57.250Z,0
2016-11-16T21:38:57.245Z,0
2016-11-16T21:39:57.237Z,0
2016-11-16T21:40:57.231Z,0
2016-11-16T21:41:57.220Z,0
2016-11-16T21:42:57.219Z,0
2016-11-16T21:43:57.504Z,0
2016-11-16T21:44:57.497Z,0
2016-11-16T21:45:57.190Z,0
2016-11-16T21:46:57.176Z,0
2016-11-16T21:47:57.481Z,0
2016-11-16T21:48:57.159Z,0
2016-11-16T21:49:57.158Z,0
2016-11-16T21:50:57.142Z,0
2016-11-16T21:51:57.147Z,0
2016-11-16T21:52:57.120Z,0
2016-11-16T21:53:57.152Z,0
2016-11-16T21:54:57.107Z,0
2016-11-16T21:55:57.099Z,0
2016-11-16T21:56:57.099Z,0
2016-11-16T21:57:57.085Z,0
2016-11-16T21:58:57.079Z,0
2016-11-16T21:59:57.373Z,0
2016-11-16T22:00:57.065Z,0
2016-11-16T22:01:57.046Z,0
2016-11-16T22:02:57.054Z,0
2016-11-16T22:03:57.028Z,0
2016-11-16T22:04:57.021Z,0
2016-11-16T22:05:57.016Z,0
2016-11-16T22:06:57.311Z,0
2016-11-16T22:07:57.001Z,0
2016-11-16T22:08:56.986Z,0
2016-11-16T22:09:56.982Z,0
2016-11-16T22:10:57.282Z,0
2016-11-16T22:11:56.964Z,0
2016-11-16T22:12:56.955Z,0
2016-11-16T22:13:56.944Z,0
2016-11-16T22:14:56.939Z,0
2016-11-16T22:15:56.926Z,0
2016-11-16T22:16:56.914Z,0
2016-11-16T22:17:56.939Z,0
2016-11-16T22:18:56.900Z,0
2016-11-16T22:19:56.887Z,0
2016-11-16T22:20:56.883Z,0
2016-11-16T22:21:56.876Z,0
2016-11-16T22:22:56.862Z,0
2016-11-16T22:23:56.860Z,0
2016-11-16T22:24:56.844Z,0
2016-11-16T22:25:56.876Z,0
2016-11-16T22:26:56.824Z,0
2016-11-16T22:27:56.825Z,0
2016-11-16T22:28:56.816Z,0
2016-11-16T22:29:57.106Z,0
2016-11-16T22:30:57.098Z,0
2016-11-16T22:31:56.786Z,0
2016-11-16T22:32:56.806Z,0
2016-11-16T22:33:56.769Z,0
2016-11-16T22:34:56.757Z,0
2016-11-16T22:35:56.751Z,0
2016-11-16T22:36:56.744Z,0
2016-11-16T22:37:56.729Z,0
2016-11-16T22:38:57.038Z,0
2016-11-16T22:39:56.718Z,0
2016-11-16T22:40:57.014Z,0
2016-11-16T22:41:56.690Z,0
2016-11-16T22:42:56.688Z,0
2016-11-16T22:43:56.680Z,0
2016-11-16T22:44:56.675Z,0
2016-11-16T22:45:56.693Z,0
2016-11-16T22:46:56.657Z,0
2016-11-16T22:47:56.674Z,0
2016-11-16T22:48:56.944Z,0
2016-11-16T22:49:56.626Z,0
2016-11-16T22:50:56.624Z,0
2016-11-16T22:51:56.616Z,0
2016-11-16T22:52:56.608Z,0
2016-11-16T22:53:56.591Z,0
2016-11-16T22:54:56.586Z,0
2016-11-16T22:55:56.576Z,0
2016-11-16T22:56:56.564Z,0
2016-11-16T22:57:56.562Z,0
2016-11-16T22:58:56.544Z,0
2016-11-16T22:59:56.544Z,0
2016-11-16T23:00:56.532Z,0
2016-11-16T23:01:56.581Z,0
2016-11-16T23:02:56.515Z,0
2016-11-16T23:03:56.542Z,0
2016-11-16T23:04:56.490Z,0
2016-11-16T23:05:56.509Z,0
2016-11-16T23:06:56.480Z,0
2016-11-16T23:07:56.476Z,0
2016-11-16T23:08:56.466Z,0
2016-11-16T23:09:56.447Z,0
2016-11-16T23:10:56.443Z,0
2016-11-16T23:11:56.431Z,0
2016-11-16T23:12:56.425Z,0
2016-11-16T23:13:56.711Z,0
2016-11-16T23:14:56.411Z,0
2016-11-16T23:15:56.703Z,0
2016-11-16T23:16:56.392Z,0
2016-11-16T23:17:56.380Z,0
2016-11-16T23:18:56.686Z,0
2016-11-16T23:19:56.665Z,0
2016-11-16T23:20:56.350Z,0
2016-11-16T23:21:56.348Z,0
2016-11-16T23:22:56.343Z,0
2016-11-16T23:23:56.330Z,0
2016-11-16T23:24:56.316Z,0
2016-11-16T23:25:56.310Z,0
2016-11-16T23:26:56.601Z,0
2016-11-16T23:27:56.318Z,0
2016-11-16T23:28:56.288Z,0
2016-11-16T23:29:56.279Z,0
2016-11-16T23:30:56.267Z,0
2016-11-16T23:31:56.289Z,0
2016-11-16T23:32:56.242Z,0
2016-11-16T23:33:56.540Z,0
2016-11-16T23:34:56.231Z,0
2016-11-16T23:35:56.230Z,0
2016-11-16T23:36:56.216Z,0
2016-11-16T23:37:56.212Z,0
2016-11-16T23:38:56.198Z,0
2016-11-16T23:39:56.186Z,0
2016-11-16T23:40:56.182Z,0
2016-11-16T23:41:56.174Z,0
2016-11-16T23:42:56.474Z,0
2016-11-16T23:43:56.157Z,0
2016-11-16T23:44:56.141Z,0
2016-11-16T23:45:56.141Z,0
2016-11-16T23:46:56.136Z,0
2016-11-16T23:47:56.114Z,0
2016-11-16T23:48:56.113Z,0
2016-11-16T23:49:56.098Z,0
2016-11-16T23:50:56.086Z,0
2016-11-16T23:51:56.079Z,0
2016-11-16T23:52:56.072Z,0
2016-11-16T23:53:56.071Z,0
2016-11-16T23:54:56.085Z,0
2016-11-16T23:55:56.049Z,0
2016-11-16T23:56:56.040Z,0
2016-11-16T23:57:56.333Z,0
2016-11-16T23:58:56.019Z,0
2016-11-16T23:59:56.009Z,0
